createdAt,value
2019-04-25T15:08:31.349Z,7.90
2019-04-25T15:11:04.830Z,7.40
2019-04-25T15:14:39.541Z,6.85
2019-04-25T15:18:59.247Z,6.42
2019-04-25T15:21:31.856Z,6.65
2019-04-25T15:24:03.008Z,5.97
2019-04-25T15:26:35.360Z,5.90
2019-04-25T15:29:08.689Z,5.33
2019-04-25T15:31:40.204Z,4.87
2019-04-25T15:34:11.660Z,4.60
2019-04-25T18:49:50.481Z,3.77
2019-04-25T18:52:23.386Z,4.25
2019-04-25T18:54:59.826Z,4.15
2019-04-25T18:57:32.155Z,3.80
2019-04-25T19:00:04.758Z,3.72
2019-04-25T19:02:54.122Z,3.92
2019-04-25T19:05:33.353Z,3.50
2019-04-25T19:08:04.498Z,3.87
2019-04-25T19:10:37.038Z,3.30
2019-04-25T19:13:12.968Z,3.67
2019-04-25T19:15:41.259Z,3.05
2019-04-25T19:18:12.608Z,3.37
2019-04-25T19:20:43.948Z,3.47
2019-04-25T19:23:14.920Z,3.58
2019-04-25T19:25:45.877Z,3.50
2019-04-25T19:28:19.780Z,3.43
2019-04-25T19:30:52.558Z,3.45
2019-04-25T19:33:34.983Z,3.42
2019-04-25T19:35:58.224Z,3.35
2019-04-25T19:38:29.849Z,3.22
2019-04-25T19:43:55.616Z,3.47
2019-04-25T19:46:28.129Z,2.87
2019-04-25T19:48:59.094Z,2.90
2019-04-25T19:51:30.273Z,3.30
2019-04-25T19:54:01.793Z,2.87
2019-04-25T19:56:33.124Z,3.20
2019-04-25T19:59:03.915Z,3.58
2019-04-25T20:01:34.603Z,3.35
2019-04-25T20:04:10.162Z,3.05
2019-04-25T20:06:58.898Z,3.45
2019-04-25T20:09:44.807Z,3.30
2019-04-25T20:12:15.808Z,2.92
2019-04-25T20:14:47.496Z,3.20
2019-04-25T20:17:18.316Z,3.05
2019-04-25T20:19:49.829Z,3.35
2019-04-25T20:22:21.246Z,3.00
2019-04-25T20:24:54.475Z,2.95
2019-04-25T20:29:56.255Z,2.92
2019-04-25T20:32:27.140Z,2.98
2019-04-25T20:34:58.504Z,2.85
2019-04-25T20:37:29.718Z,2.65
2019-04-25T20:40:03.276Z,3.20
2019-04-25T20:42:35.308Z,2.92
2019-04-25T20:45:08.386Z,2.90
2019-04-25T20:47:39.417Z,2.95
2019-04-25T20:50:10.102Z,2.98
2019-04-25T20:52:41.604Z,2.60
2019-04-25T20:55:12.612Z,3.12
2019-04-25T20:57:43.611Z,2.77
2019-04-25T21:00:19.078Z,2.67
2019-04-25T21:02:50.536Z,3.02
2019-04-25T21:05:23.332Z,2.95
2019-04-25T21:07:55.161Z,3.02
2019-04-25T21:10:26.187Z,3.20
2019-04-25T21:12:57.755Z,2.87
2019-04-25T21:15:47.968Z,2.98
2019-04-25T21:18:35.569Z,2.98
2019-04-25T21:21:06.271Z,2.98
2019-04-25T21:23:36.857Z,3.10
2019-04-25T21:26:07.609Z,2.80
2019-04-25T21:28:38.324Z,3.22
2019-04-25T21:31:09.619Z,2.77
2019-04-25T21:33:40.451Z,3.40
2019-04-25T21:36:11.594Z,2.77
2019-04-25T21:38:43.062Z,3.37
2019-04-25T21:41:32.343Z,3.00
2019-04-25T21:44:04.278Z,3.47
2019-04-25T21:46:35.568Z,3.30
2019-04-25T21:49:06.543Z,2.90
2019-04-25T21:51:37.796Z,3.33
2019-04-25T21:54:09.046Z,2.90
2019-04-25T21:56:40.034Z,3.02
2019-04-25T21:59:11.590Z,2.72
2019-04-25T22:01:43.924Z,3.02
2019-04-25T22:04:14.850Z,3.27
2019-04-25T22:06:46.122Z,3.12
2019-04-25T22:09:18.510Z,3.02
2019-04-25T22:11:49.968Z,3.15
2019-04-25T22:14:21.794Z,3.15
2019-04-25T22:16:53.232Z,2.90
2019-04-25T22:19:24.495Z,3.77
2019-04-25T22:21:56.295Z,3.42
2019-04-25T22:24:28.399Z,2.92
2019-04-25T22:27:00.887Z,2.98
2019-04-25T22:29:33.520Z,2.80
2019-04-25T22:32:05.808Z,2.87
2019-04-25T22:34:45.739Z,3.30
2019-04-25T22:37:11.023Z,3.98
2019-04-25T22:39:41.964Z,2.40
2019-04-25T22:42:14.174Z,2.83
2019-04-25T22:44:45.124Z,2.72
2019-04-25T22:47:17.613Z,3.08
2019-04-25T22:49:48.180Z,3.40
2019-04-25T22:52:19.130Z,2.72
2019-04-25T22:54:49.991Z,2.92
2019-04-25T22:57:21.067Z,3.30
2019-04-25T22:59:51.663Z,2.72
2019-04-25T23:02:39.172Z,3.25
2019-04-25T23:05:16.108Z,2.98
2019-04-25T23:07:45.156Z,3.00
2019-04-25T23:10:16.334Z,3.15
2019-04-25T23:12:46.987Z,2.70
2019-04-25T23:15:18.026Z,3.02
2019-04-25T23:17:49.054Z,2.80
2019-04-25T23:20:20.167Z,2.83
2019-04-25T23:22:51.032Z,3.35
2019-04-25T23:25:23.552Z,2.70
2019-04-25T23:28:01.570Z,3.10
2019-04-25T23:30:36.919Z,3.12
2019-04-25T23:33:08.442Z,2.87
2019-04-25T23:35:39.333Z,3.02
2019-04-25T23:38:12.521Z,2.90
2019-04-25T23:40:42.730Z,2.98
2019-04-25T23:43:13.866Z,3.02
2019-04-25T23:45:44.459Z,2.85
2019-04-25T23:48:16.376Z,2.98
2019-04-25T23:50:47.216Z,3.00
2019-04-25T23:53:18.015Z,3.00
2019-04-25T23:55:48.681Z,3.50
2019-04-25T23:58:19.291Z,2.75
